Kansas City, Missouri
Traffic Map
Current Weather Conditions
Kansas City, Missouri
Overcast
Overcast
75°
Feels Like: 75°
Wind Chill: 75° Ceiling: 3000
Heat Index: 75° Visibility: 9mi
Dew Point: 70° Wind: 3mph
Humidity: 84% Direction: 100° (E)
Pressure: 30.01in Gusts: 0mph
Raw Report DataKMKC 181554Z 10003KT 9SM FEW006 BKN030 OVC036 24/21 A3001 RMK AO2 RAB21E46 SLP157 P0000 T02390211
Traffic Incident Summary
Active as of:
Severity:
Category:
InformationThere was an issue retrieving the traffic information for this location. Please try a different location or try again shortly.
Advertisements